Terminal Aerodrome Forecast
Issued by NWS Flagstaff, AZ

Home | Current Version | Previous Version | Text Only | Print | Product List | Glossary On
Versions: 1 2 3 4 5 6 7 8 9 10 11 12 13 14 15 16 17 18
281
FTUS45 KFGZ 281859 AAA
TAFFLG
TAF AMD
KFLG 281859Z 2819/2918 02010G15KT P6SM BKN050
     FM290100 02010G17KT P6SM SKC
     FM291100 05016G26KT P6SM SKC
     FM291500 06023G34KT P6SM SKC=

USA.gov is the U.S. government's official web portal to all federal, state and local government web resources and services.